フォークランド諸島 の空港の天気 - METARとTAF

マウント・プレザント空軍基地 ( EGYP / MPN ) - フォークランド諸島 フォークランド諸島
飛行場実況気象(Metar)
観測時間08/14 15:50 FKST (08/14 18:50 UTC)
風向・風速西 4m/s
視程10km以上
天気現象
少しの雲 雲底高度 910m
全天の8割程度の雲 雲底高度 7010m
気温3℃
湿度60%
気圧998hPa
METAREGYP 141850Z 26007KT 9999 FEW030 BKN230 03/M04 Q0998
過去の天気等 Google飛行場航空写真 Wunderground天気予報

過去48時間のMETAR

飛行場予報(TAF)
発表時間: 8/14 14:26 FKST (8/14 17:26 UTC)
予報対象時間: 14日15時 FKST ~ 15日9時 FKST
風向・風速西 5m/s
視程10km以上
少しの雲 雲底高度 910m
14日15時 FKST ~ 14日18時 FKST に 確率 30% で一時的に
視程4000m
天気現象弱いしゅう雪
全天の4割程度の雲 雲底高度 300m
15日6時 FKST ~ 15日9時 FKST に 確率 40% で一時的に
視程4000m
天気現象弱いしゅう雪
全天の4割程度の雲 雲底高度 240m
15日7時 FKST ~ 15日9時 FKST に 確率 30% で一時的に
視程2000m
天気現象しゅう雪
全天の4割程度の雲 雲底高度 120m
TAF AMD EGYP 141726Z 1418/1512 26009KT 9999 FEW030
PROB30 TEMPO 1418/1421 4000 -SHSN SCT010
PROB40 TEMPO 1509/1512 4000 -SHSN SCT008
PROB30 TEMPO 1510/1512 2000 SHSN SCT004